DFOO/BOY METAR and TAF weather

Enter ICAO airport designator
Station Type Date Time Source
DFOO METAR 2018/06/25 02:00 UTC NOAA

DFOO 250200Z 00000KT CAVOK 24/22 Q1014


Station Type Date Time Source
DFOO Decoded METAR 2018/06/25 02:00 UTC NOAA

Bobo-Dioulasso, Burkina Faso (DFOO) 11-10N 004-19W 460M
Jun 24, 2018 - 10:00 PM EDT / 2018.06.25 0200 UTC
Wind: Calm:0
Visibility: greater than 7 mile(s):0
Temperature: 75 F (24 C)
Dew Point: 71 F (22 C)
Relative Humidity: 88%
Pressure (altimeter): 29.94 in. Hg (1014 hPa)
ob: DFOO 250200Z 00000KT CAVOK 24/22 Q1014
cycle: 2

Station Type Date Time Source
DFOO TAF 2018/06/24 18:21 UTC NOAA

TAF DFOO 241700Z 2418/2518 18008KT 9999 FEW020
TEMPO 2418/2424 4000 TSRA SCT020 SCT033CB
TEMPO 2514/2518 4000 TSRA SCT020 SCT033CB


Example: see airport list